sensor_id;sensor_type;location;lat;lon;timestamp;P1;durP1;ratioP1;P2;durP2;ratioP2
70558;SDS011;58108;48.094;11.838;2022-11-04T00:00:12;5.40;;;1.77;;
70558;SDS011;58108;48.094;11.838;2022-11-04T00:02:38;5.00;;;2.03;;
70558;SDS011;58108;48.094;11.838;2022-11-04T00:05:03;6.07;;;2.20;;
70558;SDS011;58108;48.094;11.838;2022-11-04T00:07:29;9.73;;;2.53;;
70558;SDS011;58108;48.094;11.838;2022-11-04T00:10:13;6.13;;;2.42;;
70558;SDS011;58108;48.094;11.838;2022-11-04T00:12:38;5.23;;;2.10;;
70558;SDS011;58108;48.094;11.838;2022-11-04T00:15:03;5.30;;;1.67;;
70558;SDS011;58108;48.094;11.838;2022-11-04T00:17:48;5.22;;;1.88;;
70558;SDS011;58108;48.094;11.838;2022-11-04T00:20:13;4.43;;;2.17;;
70558;SDS011;58108;48.094;11.838;2022-11-04T00:22:57;5.20;;;1.85;;
70558;SDS011;58108;48.094;11.838;2022-11-04T00:25:41;7.47;;;2.55;;
70558;SDS011;58108;48.094;11.838;2022-11-04T00:28:25;7.35;;;3.55;;
70558;SDS011;58108;48.094;11.838;2022-11-04T00:31:08;4.45;;;2.13;;
70558;SDS011;58108;48.094;11.838;2022-11-04T00:33:54;4.82;;;1.55;;
70558;SDS011;58108;48.094;11.838;2022-11-04T00:36:22;6.68;;;2.00;;
70558;SDS011;58108;48.094;11.838;2022-11-04T00:38:48;4.03;;;1.80;;
70558;SDS011;58108;48.094;11.838;2022-11-04T00:41:13;5.47;;;1.88;;
70558;SDS011;58108;48.094;11.838;2022-11-04T00:43:51;4.72;;;1.80;;
70558;SDS011;58108;48.094;11.838;2022-11-04T00:46:17;3.40;;;1.23;;
70558;SDS011;58108;48.094;11.838;2022-11-04T00:48:42;3.87;;;1.70;;
70558;SDS011;58108;48.094;11.838;2022-11-04T00:51:07;3.90;;;0.97;;
70558;SDS011;58108;48.094;11.838;2022-11-04T00:53:32;4.77;;;1.53;;
70558;SDS011;58108;48.094;11.838;2022-11-04T00:55:58;5.30;;;1.47;;
70558;SDS011;58108;48.094;11.838;2022-11-04T00:58:24;3.40;;;1.20;;
70558;SDS011;58108;48.094;11.838;2022-11-04T01:00:49;4.40;;;1.20;;
70558;SDS011;58108;48.094;11.838;2022-11-04T01:03:14;3.10;;;1.03;;
70558;SDS011;58108;48.094;11.838;2022-11-04T01:05:39;5.43;;;1.20;;
70558;SDS011;58108;48.094;11.838;2022-11-04T01:08:05;3.10;;;1.10;;
70558;SDS011;58108;48.094;11.838;2022-11-04T01:10:30;4.17;;;0.90;;
70558;SDS011;58108;48.094;11.838;2022-11-04T01:12:55;3.53;;;0.80;;
70558;SDS011;58108;48.094;11.838;2022-11-04T01:15:20;3.07;;;0.83;;
70558;SDS011;58108;48.094;11.838;2022-11-04T01:17:46;3.50;;;1.20;;
70558;SDS011;58108;48.094;11.838;2022-11-04T01:20:11;2.00;;;0.47;;
70558;SDS011;58108;48.094;11.838;2022-11-04T01:22:37;3.50;;;1.00;;
70558;SDS011;58108;48.094;11.838;2022-11-04T01:25:03;3.30;;;0.73;;
70558;SDS011;58108;48.094;11.838;2022-11-04T01:27:28;2.58;;;0.80;;
70558;SDS011;58108;48.094;11.838;2022-11-04T01:29:54;4.00;;;0.90;;
70558;SDS011;58108;48.094;11.838;2022-11-04T01:32:19;2.57;;;0.70;;
70558;SDS011;58108;48.094;11.838;2022-11-04T01:34:45;4.00;;;1.13;;
70558;SDS011;58108;48.094;11.838;2022-11-04T01:37:10;3.37;;;0.87;;
70558;SDS011;58108;48.094;11.838;2022-11-04T01:39:35;2.30;;;0.57;;
70558;SDS011;58108;48.094;11.838;2022-11-04T01:42:01;4.28;;;0.82;;
70558;SDS011;58108;48.094;11.838;2022-11-04T01:50:08;2.97;;;0.43;;
70558;SDS011;58108;48.094;11.838;2022-11-04T01:52:42;3.72;;;0.50;;
70558;SDS011;58108;48.094;11.838;2022-11-04T01:55:13;1.83;;;0.40;;
70558;SDS011;58108;48.094;11.838;2022-11-04T01:57:45;2.53;;;0.47;;
70558;SDS011;58108;48.094;11.838;2022-11-04T02:00:13;3.83;;;0.40;;
70558;SDS011;58108;48.094;11.838;2022-11-04T02:02:50;2.17;;;0.30;;
70558;SDS011;58108;48.094;11.838;2022-11-04T02:05:18;2.05;;;0.32;;
70558;SDS011;58108;48.094;11.838;2022-11-04T02:07:45;2.15;;;0.40;;
70558;SDS011;58108;48.094;11.838;2022-11-04T02:10:14;1.98;;;0.43;;
70558;SDS011;58108;48.094;11.838;2022-11-04T02:12:40;3.15;;;0.40;;
70558;SDS011;58108;48.094;11.838;2022-11-04T02:40:36;2.33;;;0.20;;
70558;SDS011;58108;48.094;11.838;2022-11-04T02:43:25;1.45;;;0.15;;
70558;SDS011;58108;48.094;11.838;2022-11-04T02:46:04;1.92;;;0.20;;
70558;SDS011;58108;48.094;11.838;2022-11-04T02:48:51;1.90;;;0.30;;
70558;SDS011;58108;48.094;11.838;2022-11-04T02:51:18;1.48;;;0.22;;
70558;SDS011;58108;48.094;11.838;2022-11-04T02:56:55;2.30;;;0.20;;
70558;SDS011;58108;48.094;11.838;2022-11-04T02:59:34;1.35;;;0.10;;
70558;SDS011;58108;48.094;11.838;2022-11-04T03:02:04;1.80;;;0.20;;
70558;SDS011;58108;48.094;11.838;2022-11-04T03:04:34;1.98;;;0.20;;
70558;SDS011;58108;48.094;11.838;2022-11-04T03:07:02;1.25;;;0.10;;
70558;SDS011;58108;48.094;11.838;2022-11-04T03:09:32;1.90;;;0.20;;
70558;SDS011;58108;48.094;11.838;2022-11-04T03:12:01;1.80;;;0.30;;
70558;SDS011;58108;48.094;11.838;2022-11-04T03:14:35;1.83;;;0.28;;
70558;SDS011;58108;48.094;11.838;2022-11-04T03:17:05;1.60;;;0.10;;
70558;SDS011;58108;48.094;11.838;2022-11-04T03:19:46;1.73;;;0.20;;
70558;SDS011;58108;48.094;11.838;2022-11-04T03:22:22;1.02;;;0.10;;
70558;SDS011;58108;48.094;11.838;2022-11-04T03:24:50;1.50;;;0.10;;
70558;SDS011;58108;48.094;11.838;2022-11-04T03:30:01;2.75;;;0.20;;
70558;SDS011;58108;48.094;11.838;2022-11-04T03:34:53;1.07;;;0.10;;
70558;SDS011;58108;48.094;11.838;2022-11-04T03:37:19;1.67;;;0.20;;
70558;SDS011;58108;48.094;11.838;2022-11-04T03:39:44;1.30;;;0.10;;
70558;SDS011;58108;48.094;11.838;2022-11-04T03:42:10;1.92;;;0.15;;
70558;SDS011;58108;48.094;11.838;2022-11-04T03:44:51;1.88;;;0.17;;
70558;SDS011;58108;48.094;11.838;2022-11-04T03:47:18;1.45;;;0.10;;
70558;SDS011;58108;48.094;11.838;2022-11-04T03:49:46;1.55;;;0.13;;
70558;SDS011;58108;48.094;11.838;2022-11-04T03:52:12;1.43;;;0.20;;
70558;SDS011;58108;48.094;11.838;2022-11-04T03:54:38;1.83;;;0.20;;
70558;SDS011;58108;48.094;11.838;2022-11-04T03:57:07;1.47;;;0.20;;
70558;SDS011;58108;48.094;11.838;2022-11-04T04:04:58;1.63;;;0.20;;
70558;SDS011;58108;48.094;11.838;2022-11-04T04:07:37;1.50;;;0.10;;
70558;SDS011;58108;48.094;11.838;2022-11-04T04:10:12;2.00;;;0.10;;
70558;SDS011;58108;48.094;11.838;2022-11-04T04:13:01;2.65;;;0.20;;
70558;SDS011;58108;48.094;11.838;2022-11-04T04:15:41;1.85;;;0.10;;
70558;SDS011;58108;48.094;11.838;2022-11-04T04:18:12;1.70;;;0.20;;
70558;SDS011;58108;48.094;11.838;2022-11-04T04:20:40;1.45;;;0.20;;
70558;SDS011;58108;48.094;11.838;2022-11-04T04:23:15;1.53;;;0.10;;
70558;SDS011;58108;48.094;11.838;2022-11-04T04:26:05;1.48;;;0.10;;
70558;SDS011;58108;48.094;11.838;2022-11-04T04:28:52;1.10;;;0.10;;
70558;SDS011;58108;48.094;11.838;2022-11-04T04:31:19;1.90;;;0.20;;
70558;SDS011;58108;48.094;11.838;2022-11-04T04:34:04;1.30;;;0.10;;
70558;SDS011;58108;48.094;11.838;2022-11-04T04:36:31;1.17;;;0.10;;
70558;SDS011;58108;48.094;11.838;2022-11-04T04:39:03;1.77;;;0.10;;
70558;SDS011;58108;48.094;11.838;2022-11-04T04:41:49;1.38;;;0.17;;
70558;SDS011;58108;48.094;11.838;2022-11-04T04:44:34;1.75;;;0.20;;
70558;SDS011;58108;48.094;11.838;2022-11-04T04:47:20;2.33;;;0.20;;
70558;SDS011;58108;48.094;11.838;2022-11-04T04:49:51;2.17;;;0.27;;
70558;SDS011;58108;48.094;11.838;2022-11-04T04:52:17;2.25;;;0.30;;
70558;SDS011;58108;48.094;11.838;2022-11-04T04:54:44;1.50;;;0.20;;
70558;SDS011;58108;48.094;11.838;2022-11-04T04:57:09;1.50;;;0.20;;
70558;SDS011;58108;48.094;11.838;2022-11-04T04:59:35;1.00;;;0.10;;
70558;SDS011;58108;48.094;11.838;2022-11-04T05:02:00;1.40;;;0.20;;
70558;SDS011;58108;48.094;11.838;2022-11-04T05:04:25;2.05;;;0.20;;
70558;SDS011;58108;48.094;11.838;2022-11-04T05:06:51;1.90;;;0.20;;
70558;SDS011;58108;48.094;11.838;2022-11-04T05:09:16;1.37;;;0.10;;
70558;SDS011;58108;48.094;11.838;2022-11-04T05:11:41;1.33;;;0.13;;
70558;SDS011;58108;48.094;11.838;2022-11-04T05:14:07;1.40;;;0.10;;
70558;SDS011;58108;48.094;11.838;2022-11-04T05:16:32;1.47;;;0.20;;
70558;SDS011;58108;48.094;11.838;2022-11-04T05:18:57;1.07;;;0.07;;
70558;SDS011;58108;48.094;11.838;2022-11-04T05:21:22;1.37;;;0.10;;
70558;SDS011;58108;48.094;11.838;2022-11-04T05:23:48;1.63;;;0.10;;
70558;SDS011;58108;48.094;11.838;2022-11-04T05:26:13;1.20;;;0.10;;
70558;SDS011;58108;48.094;11.838;2022-11-04T05:28:38;1.20;;;0.10;;
70558;SDS011;58108;48.094;11.838;2022-11-04T05:31:04;0.87;;;0.10;;
70558;SDS011;58108;48.094;11.838;2022-11-04T05:33:30;1.00;;;0.10;;
70558;SDS011;58108;48.094;11.838;2022-11-04T05:36:04;1.60;;;0.10;;
70558;SDS011;58108;48.094;11.838;2022-11-04T05:38:33;1.40;;;0.10;;
70558;SDS011;58108;48.094;11.838;2022-11-04T05:40:58;1.20;;;0.10;;
70558;SDS011;58108;48.094;11.838;2022-11-04T05:43:24;1.20;;;0.10;;
70558;SDS011;58108;48.094;11.838;2022-11-04T05:45:49;1.07;;;0.10;;
70558;SDS011;58108;48.094;11.838;2022-11-04T05:48:14;0.97;;;0.00;;
70558;SDS011;58108;48.094;11.838;2022-11-04T05:50:40;1.57;;;0.10;;
70558;SDS011;58108;48.094;11.838;2022-11-04T05:53:05;1.55;;;0.10;;
70558;SDS011;58108;48.094;11.838;2022-11-04T05:55:31;1.23;;;0.20;;
70558;SDS011;58108;48.094;11.838;2022-11-04T05:57:56;1.47;;;0.10;;
70558;SDS011;58108;48.094;11.838;2022-11-04T06:00:23;1.50;;;0.10;;
70558;SDS011;58108;48.094;11.838;2022-11-04T06:02:49;2.22;;;0.20;;
70558;SDS011;58108;48.094;11.838;2022-11-04T06:05:14;2.83;;;0.38;;
70558;SDS011;58108;48.094;11.838;2022-11-04T06:07:39;1.83;;;0.10;;
70558;SDS011;58108;48.094;11.838;2022-11-04T06:10:05;1.63;;;0.10;;
70558;SDS011;58108;48.094;11.838;2022-11-04T06:12:30;2.03;;;0.20;;
70558;SDS011;58108;48.094;11.838;2022-11-04T06:14:56;1.53;;;0.10;;
70558;SDS011;58108;48.094;11.838;2022-11-04T06:17:21;1.90;;;0.10;;
70558;SDS011;58108;48.094;11.838;2022-11-04T06:19:47;2.22;;;0.20;;
70558;SDS011;58108;48.094;11.838;2022-11-04T06:22:13;2.00;;;0.50;;
70558;SDS011;58108;48.094;11.838;2022-11-04T06:24:41;2.30;;;0.30;;
70558;SDS011;58108;48.094;11.838;2022-11-04T06:27:07;2.88;;;0.20;;
70558;SDS011;58108;48.094;11.838;2022-11-04T06:29:33;1.85;;;0.20;;
70558;SDS011;58108;48.094;11.838;2022-11-04T06:32:03;2.00;;;0.15;;
70558;SDS011;58108;48.094;11.838;2022-11-04T06:34:29;3.20;;;0.20;;
70558;SDS011;58108;48.094;11.838;2022-11-04T06:36:55;1.43;;;0.20;;
70558;SDS011;58108;48.094;11.838;2022-11-04T06:39:20;1.20;;;0.10;;
70558;SDS011;58108;48.094;11.838;2022-11-04T06:41:45;1.67;;;0.20;;
70558;SDS011;58108;48.094;11.838;2022-11-04T06:44:11;2.67;;;0.30;;
70558;SDS011;58108;48.094;11.838;2022-11-04T06:46:37;2.57;;;0.23;;
70558;SDS011;58108;48.094;11.838;2022-11-04T06:49:04;2.93;;;0.40;;
70558;SDS011;58108;48.094;11.838;2022-11-04T06:51:31;2.38;;;0.38;;
70558;SDS011;58108;48.094;11.838;2022-11-04T06:53:57;3.58;;;0.30;;
70558;SDS011;58108;48.094;11.838;2022-11-04T06:56:23;2.27;;;0.30;;
70558;SDS011;58108;48.094;11.838;2022-11-04T06:58:49;2.38;;;0.20;;
70558;SDS011;58108;48.094;11.838;2022-11-04T07:01:16;1.80;;;0.20;;
70558;SDS011;58108;48.094;11.838;2022-11-04T07:03:43;2.40;;;0.32;;
70558;SDS011;58108;48.094;11.838;2022-11-04T07:06:09;1.73;;;0.20;;
70558;SDS011;58108;48.094;11.838;2022-11-04T07:08:35;0.70;;;0.03;;
70558;SDS011;58108;48.094;11.838;2022-11-04T07:11:01;3.13;;;0.10;;
70558;SDS011;58108;48.094;11.838;2022-11-04T07:13:27;1.70;;;0.30;;
70558;SDS011;58108;48.094;11.838;2022-11-04T07:15:52;1.20;;;0.10;;
70558;SDS011;58108;48.094;11.838;2022-11-04T07:18:17;1.57;;;0.20;;
70558;SDS011;58108;48.094;11.838;2022-11-04T07:20:43;2.23;;;0.20;;
70558;SDS011;58108;48.094;11.838;2022-11-04T07:23:08;2.93;;;0.23;;
70558;SDS011;58108;48.094;11.838;2022-11-04T07:25:33;1.40;;;0.10;;
70558;SDS011;58108;48.094;11.838;2022-11-04T07:27:59;2.43;;;0.30;;
70558;SDS011;58108;48.094;11.838;2022-11-04T07:30:25;2.17;;;0.20;;
70558;SDS011;58108;48.094;11.838;2022-11-04T07:32:51;2.20;;;0.20;;
70558;SDS011;58108;48.094;11.838;2022-11-04T07:35:17;1.85;;;0.10;;
70558;SDS011;58108;48.094;11.838;2022-11-04T07:37:42;1.83;;;0.20;;
70558;SDS011;58108;48.094;11.838;2022-11-04T07:40:07;2.40;;;0.50;;
70558;SDS011;58108;48.094;11.838;2022-11-04T07:42:34;3.40;;;0.63;;
70558;SDS011;58108;48.094;11.838;2022-11-04T07:44:59;2.10;;;0.30;;
70558;SDS011;58108;48.094;11.838;2022-11-04T07:47:25;1.37;;;0.20;;
70558;SDS011;58108;48.094;11.838;2022-11-04T07:49:53;2.20;;;0.30;;
70558;SDS011;58108;48.094;11.838;2022-11-04T07:52:19;1.70;;;0.20;;
70558;SDS011;58108;48.094;11.838;2022-11-04T07:54:44;1.93;;;0.20;;
70558;SDS011;58108;48.094;11.838;2022-11-04T07:57:09;2.70;;;0.50;;
70558;SDS011;58108;48.094;11.838;2022-11-04T07:59:35;2.63;;;0.30;;
70558;SDS011;58108;48.094;11.838;2022-11-04T08:02:00;2.87;;;0.50;;
70558;SDS011;58108;48.094;11.838;2022-11-04T08:04:25;1.53;;;0.13;;
70558;SDS011;58108;48.094;11.838;2022-11-04T08:06:51;1.33;;;0.20;;
70558;SDS011;58108;48.094;11.838;2022-11-04T08:09:16;2.70;;;0.20;;
70558;SDS011;58108;48.094;11.838;2022-11-04T08:11:41;2.67;;;0.40;;
70558;SDS011;58108;48.094;11.838;2022-11-04T08:14:07;1.53;;;0.10;;
70558;SDS011;58108;48.094;11.838;2022-11-04T08:16:33;1.85;;;0.20;;
70558;SDS011;58108;48.094;11.838;2022-11-04T08:18:59;2.58;;;0.20;;
70558;SDS011;58108;48.094;11.838;2022-11-04T08:21:26;1.87;;;0.20;;
70558;SDS011;58108;48.094;11.838;2022-11-04T08:23:53;1.95;;;0.20;;
70558;SDS011;58108;48.094;11.838;2022-11-04T08:26:19;3.03;;;0.30;;
70558;SDS011;58108;48.094;11.838;2022-11-04T08:28:45;1.80;;;0.22;;
70558;SDS011;58108;48.094;11.838;2022-11-04T08:31:16;1.98;;;0.10;;
70558;SDS011;58108;48.094;11.838;2022-11-04T08:33:53;2.67;;;0.10;;
70558;SDS011;58108;48.094;11.838;2022-11-04T08:36:52;2.47;;;0.13;;
70558;SDS011;58108;48.094;11.838;2022-11-04T08:39:11;1.65;;;0.10;;
70558;SDS011;58108;48.094;11.838;2022-11-04T08:41:38;1.80;;;0.20;;
70558;SDS011;58108;48.094;11.838;2022-11-04T08:44:05;1.95;;;0.15;;
70558;SDS011;58108;48.094;11.838;2022-11-04T08:46:34;2.27;;;0.30;;
70558;SDS011;58108;48.094;11.838;2022-11-04T08:49:02;1.98;;;0.20;;
70558;SDS011;58108;48.094;11.838;2022-11-04T08:51:28;1.98;;;0.30;;
70558;SDS011;58108;48.094;11.838;2022-11-04T08:53:55;2.65;;;0.30;;
70558;SDS011;58108;48.094;11.838;2022-11-04T08:56:22;1.97;;;0.30;;
70558;SDS011;58108;48.094;11.838;2022-11-04T08:58:56;2.50;;;0.35;;
70558;SDS011;58108;48.094;11.838;2022-11-04T09:01:26;2.13;;;0.10;;
70558;SDS011;58108;48.094;11.838;2022-11-04T09:03:53;2.83;;;0.30;;
70558;SDS011;58108;48.094;11.838;2022-11-04T09:06:20;2.63;;;0.30;;
70558;SDS011;58108;48.094;11.838;2022-11-04T09:08:49;3.22;;;0.30;;
70558;SDS011;58108;48.094;11.838;2022-11-04T09:11:16;1.70;;;0.20;;
70558;SDS011;58108;48.094;11.838;2022-11-04T09:13:42;2.88;;;0.40;;
70558;SDS011;58108;48.094;11.838;2022-11-04T09:16:08;2.10;;;0.20;;
70558;SDS011;58108;48.094;11.838;2022-11-04T09:18:35;2.17;;;0.10;;
70558;SDS011;58108;48.094;11.838;2022-11-04T09:21:01;2.77;;;0.40;;
70558;SDS011;58108;48.094;11.838;2022-11-04T09:23:28;2.53;;;0.20;;
70558;SDS011;58108;48.094;11.838;2022-11-04T09:25:54;2.17;;;0.30;;
70558;SDS011;58108;48.094;11.838;2022-11-04T09:28:21;1.85;;;0.20;;
70558;SDS011;58108;48.094;11.838;2022-11-04T09:30:46;1.57;;;0.30;;
70558;SDS011;58108;48.094;11.838;2022-11-04T09:33:12;2.20;;;0.27;;
70558;SDS011;58108;48.094;11.838;2022-11-04T09:35:37;3.43;;;0.30;;
70558;SDS011;58108;48.094;11.838;2022-11-04T09:38:02;3.03;;;0.50;;
70558;SDS011;58108;48.094;11.838;2022-11-04T09:40:28;2.90;;;0.40;;
70558;SDS011;58108;48.094;11.838;2022-11-04T09:43:00;2.60;;;0.40;;
70558;SDS011;58108;48.094;11.838;2022-11-04T09:45:49;2.78;;;0.30;;
70558;SDS011;58108;48.094;11.838;2022-11-04T09:48:25;2.50;;;0.30;;
70558;SDS011;58108;48.094;11.838;2022-11-04T09:50:58;1.52;;;0.20;;
70558;SDS011;58108;48.094;11.838;2022-11-04T09:53:29;2.47;;;0.40;;
70558;SDS011;58108;48.094;11.838;2022-11-04T09:55:59;2.45;;;0.43;;
70558;SDS011;58108;48.094;11.838;2022-11-04T09:58:27;3.10;;;0.40;;
70558;SDS011;58108;48.094;11.838;2022-11-04T10:01:08;2.20;;;0.30;;
70558;SDS011;58108;48.094;11.838;2022-11-04T10:06:43;1.63;;;0.20;;
70558;SDS011;58108;48.094;11.838;2022-11-04T10:09:42;3.35;;;0.20;;
70558;SDS011;58108;48.094;11.838;2022-11-04T10:15:33;1.67;;;0.30;;
70558;SDS011;58108;48.094;11.838;2022-11-04T10:21:15;1.63;;;0.20;;
70558;SDS011;58108;48.094;11.838;2022-11-04T10:23:44;1.13;;;0.20;;
70558;SDS011;58108;48.094;11.838;2022-11-04T10:26:27;1.98;;;0.30;;
70558;SDS011;58108;48.094;11.838;2022-11-04T10:29:05;1.27;;;0.20;;
70558;SDS011;58108;48.094;11.838;2022-11-04T10:31:36;2.88;;;0.60;;
70558;SDS011;58108;48.094;11.838;2022-11-04T10:34:04;2.47;;;0.30;;
70558;SDS011;58108;48.094;11.838;2022-11-04T10:36:33;2.25;;;0.20;;
70558;SDS011;58108;48.094;11.838;2022-11-04T10:39:01;2.25;;;0.20;;
70558;SDS011;58108;48.094;11.838;2022-11-04T10:41:38;2.03;;;0.20;;
70558;SDS011;58108;48.094;11.838;2022-11-04T10:52:11;1.73;;;0.10;;
70558;SDS011;58108;48.094;11.838;2022-11-04T10:54:39;2.00;;;0.20;;
70558;SDS011;58108;48.094;11.838;2022-11-04T10:57:06;1.23;;;0.20;;
70558;SDS011;58108;48.094;11.838;2022-11-04T11:02:09;2.67;;;0.22;;
70558;SDS011;58108;48.094;11.838;2022-11-04T11:04:35;1.93;;;0.40;;
70558;SDS011;58108;48.094;11.838;2022-11-04T11:07:03;2.67;;;0.60;;
70558;SDS011;58108;48.094;11.838;2022-11-04T11:09:31;3.50;;;0.68;;
70558;SDS011;58108;48.094;11.838;2022-11-04T11:12:02;2.33;;;0.60;;
70558;SDS011;58108;48.094;11.838;2022-11-04T11:19:44;2.70;;;0.50;;
70558;SDS011;58108;48.094;11.838;2022-11-04T11:27:51;2.40;;;0.60;;
70558;SDS011;58108;48.094;11.838;2022-11-04T11:30:23;2.20;;;0.40;;
70558;SDS011;58108;48.094;11.838;2022-11-04T11:32:57;2.40;;;0.28;;
70558;SDS011;58108;48.094;11.838;2022-11-04T11:35:27;1.80;;;0.30;;
70558;SDS011;58108;48.094;11.838;2022-11-04T11:37:56;2.22;;;0.30;;
70558;SDS011;58108;48.094;11.838;2022-11-04T11:40:28;2.55;;;0.40;;
70558;SDS011;58108;48.094;11.838;2022-11-04T11:42:56;2.88;;;0.40;;
70558;SDS011;58108;48.094;11.838;2022-11-04T11:45:24;2.33;;;0.32;;
70558;SDS011;58108;48.094;11.838;2022-11-04T11:47:51;3.85;;;0.75;;
70558;SDS011;58108;48.094;11.838;2022-11-04T11:50:26;3.40;;;0.88;;
70558;SDS011;58108;48.094;11.838;2022-11-04T11:55:55;3.00;;;0.40;;
70558;SDS011;58108;48.094;11.838;2022-11-04T11:58:38;2.50;;;0.30;;
70558;SDS011;58108;48.094;11.838;2022-11-04T12:01:29;2.10;;;0.40;;
70558;SDS011;58108;48.094;11.838;2022-11-04T12:03:57;3.72;;;0.70;;
70558;SDS011;58108;48.094;11.838;2022-11-04T12:12:19;2.45;;;0.30;;
70558;SDS011;58108;48.094;11.838;2022-11-04T12:17:32;1.85;;;0.47;;
70558;SDS011;58108;48.094;11.838;2022-11-04T12:20:25;1.63;;;0.17;;
70558;SDS011;58108;48.094;11.838;2022-11-04T12:34:30;3.25;;;0.40;;
70558;SDS011;58108;48.094;11.838;2022-11-04T12:37:10;2.17;;;0.40;;
70558;SDS011;58108;48.094;11.838;2022-11-04T12:39:42;2.47;;;0.40;;
70558;SDS011;58108;48.094;11.838;2022-11-04T12:42:20;1.63;;;0.10;;
70558;SDS011;58108;48.094;11.838;2022-11-04T12:47:41;2.35;;;0.20;;
70558;SDS011;58108;48.094;11.838;2022-11-04T12:58:27;1.08;;;0.10;;
70558;SDS011;58108;48.094;11.838;2022-11-04T13:01:17;0.80;;;0.00;;
70558;SDS011;58108;48.094;11.838;2022-11-04T13:03:49;1.17;;;0.10;;
70558;SDS011;58108;48.094;11.838;2022-11-04T13:09:01;1.30;;;0.10;;
70558;SDS011;58108;48.094;11.838;2022-11-04T13:11:33;0.90;;;0.10;;
70558;SDS011;58108;48.094;11.838;2022-11-04T13:14:08;0.90;;;0.10;;
70558;SDS011;58108;48.094;11.838;2022-11-04T13:16:40;1.40;;;0.20;;
70558;SDS011;58108;48.094;11.838;2022-11-04T13:21:49;1.50;;;0.10;;
70558;SDS011;58108;48.094;11.838;2022-11-04T13:24:21;1.27;;;0.10;;
70558;SDS011;58108;48.094;11.838;2022-11-04T13:26:54;1.20;;;0.10;;
70558;SDS011;58108;48.094;11.838;2022-11-04T13:29:27;2.08;;;0.20;;
70558;SDS011;58108;48.094;11.838;2022-11-04T13:37:33;1.42;;;0.10;;
70558;SDS011;58108;48.094;11.838;2022-11-04T13:40:14;2.97;;;0.33;;
70558;SDS011;58108;48.094;11.838;2022-11-04T13:45:18;1.85;;;0.20;;
70558;SDS011;58108;48.094;11.838;2022-11-04T13:47:54;1.13;;;0.20;;
70558;SDS011;58108;48.094;11.838;2022-11-04T13:50:33;2.95;;;0.10;;
70558;SDS011;58108;48.094;11.838;2022-11-04T13:53:01;1.90;;;0.13;;
70558;SDS011;58108;48.094;11.838;2022-11-04T13:55:28;3.63;;;0.80;;
70558;SDS011;58108;48.094;11.838;2022-11-04T13:58:01;2.55;;;0.35;;
70558;SDS011;58108;48.094;11.838;2022-11-04T14:00:29;1.50;;;0.13;;
70558;SDS011;58108;48.094;11.838;2022-11-04T14:08:24;1.42;;;0.20;;
70558;SDS011;58108;48.094;11.838;2022-11-04T14:16:06;1.90;;;0.30;;
70558;SDS011;58108;48.094;11.838;2022-11-04T14:18:35;0.68;;;0.10;;
70558;SDS011;58108;48.094;11.838;2022-11-04T14:21:06;1.08;;;0.17;;
70558;SDS011;58108;48.094;11.838;2022-11-04T14:23:37;1.65;;;0.15;;
70558;SDS011;58108;48.094;11.838;2022-11-04T14:26:05;1.70;;;0.10;;
70558;SDS011;58108;48.094;11.838;2022-11-04T14:28:32;1.20;;;0.10;;
70558;SDS011;58108;48.094;11.838;2022-11-04T14:44:07;1.80;;;0.25;;
70558;SDS011;58108;48.094;11.838;2022-11-04T14:46:49;1.25;;;0.20;;
70558;SDS011;58108;48.094;11.838;2022-11-04T14:49:34;1.00;;;0.10;;
70558;SDS011;58108;48.094;11.838;2022-11-04T14:52:23;1.13;;;0.13;;
70558;SDS011;58108;48.094;11.838;2022-11-04T14:54:53;3.65;;;1.05;;
70558;SDS011;58108;48.094;11.838;2022-11-04T14:57:22;1.85;;;0.25;;
70558;SDS011;58108;48.094;11.838;2022-11-04T14:59:48;1.13;;;0.22;;
70558;SDS011;58108;48.094;11.838;2022-11-04T15:02:23;1.05;;;0.10;;
70558;SDS011;58108;48.094;11.838;2022-11-04T15:04:59;1.38;;;0.20;;
70558;SDS011;58108;48.094;11.838;2022-11-04T15:07:36;2.08;;;0.20;;
70558;SDS011;58108;48.094;11.838;2022-11-04T15:10:17;1.13;;;0.10;;
70558;SDS011;58108;48.094;11.838;2022-11-04T15:12:44;1.55;;;0.20;;
70558;SDS011;58108;48.094;11.838;2022-11-04T15:17:55;1.17;;;0.10;;
70558;SDS011;58108;48.094;11.838;2022-11-04T15:20:23;2.20;;;0.10;;
70558;SDS011;58108;48.094;11.838;2022-11-04T15:22:49;1.83;;;0.20;;
70558;SDS011;58108;48.094;11.838;2022-11-04T15:25:16;1.90;;;0.20;;
70558;SDS011;58108;48.094;11.838;2022-11-04T15:27:42;1.65;;;0.30;;
70558;SDS011;58108;48.094;11.838;2022-11-04T15:30:22;2.58;;;0.30;;
70558;SDS011;58108;48.094;11.838;2022-11-04T15:32:53;2.85;;;0.20;;
70558;SDS011;58108;48.094;11.838;2022-11-04T15:35:27;2.28;;;0.28;;
70558;SDS011;58108;48.094;11.838;2022-11-04T15:37:54;1.75;;;0.17;;
70558;SDS011;58108;48.094;11.838;2022-11-04T15:40:20;1.80;;;0.30;;
70558;SDS011;58108;48.094;11.838;2022-11-04T15:42:46;1.20;;;0.10;;
70558;SDS011;58108;48.094;11.838;2022-11-04T15:47:47;1.38;;;0.10;;
70558;SDS011;58108;48.094;11.838;2022-11-04T15:50:14;0.80;;;0.10;;
70558;SDS011;58108;48.094;11.838;2022-11-04T15:52:47;1.75;;;0.10;;
70558;SDS011;58108;48.094;11.838;2022-11-04T15:55:22;1.25;;;0.20;;
70558;SDS011;58108;48.094;11.838;2022-11-04T15:57:50;1.27;;;0.17;;
70558;SDS011;58108;48.094;11.838;2022-11-04T16:02:51;1.87;;;0.13;;
70558;SDS011;58108;48.094;11.838;2022-11-04T16:05:29;1.67;;;0.25;;
70558;SDS011;58108;48.094;11.838;2022-11-04T16:08:13;1.88;;;0.20;;
70558;SDS011;58108;48.094;11.838;2022-11-04T16:10:43;1.75;;;0.22;;
70558;SDS011;58108;48.094;11.838;2022-11-04T16:19:11;1.67;;;0.20;;
70558;SDS011;58108;48.094;11.838;2022-11-04T16:21:08;2.85;;;0.30;;
70558;SDS011;58108;48.094;11.838;2022-11-04T16:23:46;2.08;;;0.32;;
70558;SDS011;58108;48.094;11.838;2022-11-04T16:26:13;1.88;;;0.25;;
70558;SDS011;58108;48.094;11.838;2022-11-04T16:28:39;2.65;;;0.40;;
70558;SDS011;58108;48.094;11.838;2022-11-04T16:31:07;1.90;;;0.30;;
70558;SDS011;58108;48.094;11.838;2022-11-04T16:33:47;1.60;;;0.20;;
70558;SDS011;58108;48.094;11.838;2022-11-04T16:36:13;1.50;;;0.10;;
70558;SDS011;58108;48.094;11.838;2022-11-04T16:38:54;2.15;;;0.20;;
70558;SDS011;58108;48.094;11.838;2022-11-04T16:41:22;1.23;;;0.10;;
70558;SDS011;58108;48.094;11.838;2022-11-04T16:43:48;1.55;;;0.17;;
70558;SDS011;58108;48.094;11.838;2022-11-04T16:46:14;2.47;;;0.20;;
70558;SDS011;58108;48.094;11.838;2022-11-04T16:48:41;2.10;;;0.20;;
70558;SDS011;58108;48.094;11.838;2022-11-04T16:51:08;2.20;;;0.30;;
70558;SDS011;58108;48.094;11.838;2022-11-04T16:53:39;2.10;;;0.20;;
70558;SDS011;58108;48.094;11.838;2022-11-04T16:56:04;1.70;;;0.30;;
70558;SDS011;58108;48.094;11.838;2022-11-04T16:58:30;2.53;;;0.28;;
70558;SDS011;58108;48.094;11.838;2022-11-04T17:00:56;2.30;;;0.40;;
70558;SDS011;58108;48.094;11.838;2022-11-04T17:03:21;1.83;;;0.40;;
70558;SDS011;58108;48.094;11.838;2022-11-04T17:05:50;1.70;;;0.30;;
70558;SDS011;58108;48.094;11.838;2022-11-04T17:08:18;1.73;;;0.20;;
70558;SDS011;58108;48.094;11.838;2022-11-04T17:10:45;1.47;;;0.23;;
70558;SDS011;58108;48.094;11.838;2022-11-04T17:13:11;2.33;;;0.32;;
70558;SDS011;58108;48.094;11.838;2022-11-04T17:15:36;1.97;;;0.40;;
70558;SDS011;58108;48.094;11.838;2022-11-04T17:18:02;4.50;;;1.10;;
70558;SDS011;58108;48.094;11.838;2022-11-04T17:20:28;3.50;;;1.50;;
70558;SDS011;58108;48.094;11.838;2022-11-04T17:22:55;4.28;;;1.20;;
70558;SDS011;58108;48.094;11.838;2022-11-04T17:25:22;4.43;;;1.20;;
70558;SDS011;58108;48.094;11.838;2022-11-04T17:27:49;3.55;;;1.30;;